createdAt,value
2023-03-30T00:01:10.400Z,100.00
2023-03-30T00:06:06.115Z,100.00
2023-03-30T00:08:33.463Z,100.00
2023-03-30T00:11:02.079Z,100.00
2023-03-30T00:13:29.484Z,100.00
2023-03-30T00:15:56.416Z,100.00
2023-03-30T00:18:23.088Z,100.00
2023-03-30T00:20:50.756Z,100.00
2023-03-30T00:23:18.330Z,100.00
2023-03-30T00:25:45.236Z,100.00
2023-03-30T00:28:11.889Z,100.00
2023-03-30T00:30:39.698Z,100.00
2023-03-30T00:33:06.359Z,100.00
2023-03-30T00:35:33.728Z,100.00
2023-03-30T00:38:04.280Z,100.00
2023-03-30T00:40:32.938Z,100.00
2023-03-30T00:43:05.469Z,100.00
2023-03-30T00:45:37.025Z,100.00
2023-03-30T00:48:10.034Z,100.00
2023-03-30T00:50:40.623Z,100.00
2023-03-30T00:53:12.920Z,100.00
2023-03-30T00:55:40.809Z,100.00
2023-03-30T00:58:09.863Z,100.00
2023-03-30T01:00:39.319Z,100.00
2023-03-30T01:03:33.080Z,100.00
2023-03-30T01:06:02.837Z,100.00
2023-03-30T01:08:32.484Z,100.00
2023-03-30T01:11:03.688Z,100.00
2023-03-30T01:13:33.182Z,100.00
2023-03-30T01:16:21.004Z,100.00
2023-03-30T01:19:25.464Z,100.00
2023-03-30T01:22:07.024Z,100.00
2023-03-30T01:24:58.574Z,100.00
2023-03-30T01:27:40.206Z,100.00
2023-03-30T01:30:24.036Z,100.00
2023-03-30T01:33:09.395Z,100.00
2023-03-30T01:35:48.159Z,100.00
2023-03-30T01:38:56.629Z,100.00
2023-03-30T01:41:33.366Z,100.00
2023-03-30T01:44:15.241Z,100.00
2023-03-30T01:46:48.183Z,100.00
2023-03-30T01:49:20.755Z,100.00
2023-03-30T01:52:00.290Z,100.00
2023-03-30T01:54:32.248Z,100.00
2023-03-30T01:57:21.562Z,100.00
2023-03-30T02:00:13.013Z,100.00
2023-03-30T02:02:54.840Z,100.00
2023-03-30T02:05:24.496Z,100.00
2023-03-30T02:08:01.236Z,100.00
2023-03-30T02:10:31.847Z,99.03
2023-03-30T02:13:00.255Z,97.89
2023-03-30T02:15:36.860Z,96.86
2023-03-30T02:18:04.841Z,95.52
2023-03-30T02:20:33.125Z,95.88
2023-03-30T02:23:01.377Z,94.27
2023-03-30T02:25:28.556Z,93.01
2023-03-30T02:27:55.547Z,92.21
2023-03-30T02:30:22.158Z,91.11
2023-03-30T02:32:53.383Z,89.94
2023-03-30T02:35:53.450Z,89.55
2023-03-30T02:38:20.052Z,89.27
2023-03-30T02:40:58.165Z,89.20
2023-03-30T02:43:52.491Z,89.41
2023-03-30T02:46:49.393Z,89.13
2023-03-30T02:49:20.805Z,88.87
2023-03-30T02:52:33.822Z,88.09
2023-03-30T02:55:23.084Z,88.38
2023-03-30T02:58:14.533Z,86.48
2023-03-30T03:01:17.867Z,85.20
2023-03-30T03:03:58.936Z,83.76
2023-03-30T03:06:32.218Z,83.58
2023-03-30T03:08:59.567Z,82.48
2023-03-30T03:11:28.665Z,81.48
2023-03-30T03:13:55.733Z,81.42
2023-03-30T03:16:23.311Z,80.49
2023-03-30T03:19:13.432Z,79.78
2023-03-30T03:21:40.524Z,79.47
2023-03-30T03:24:07.301Z,79.55
2023-03-30T03:26:52.891Z,78.73
2023-03-30T03:29:20.692Z,79.55
2023-03-30T03:31:47.297Z,78.66
2023-03-30T03:34:13.975Z,78.12
2023-03-30T03:36:54.806Z,78.78
2023-03-30T03:39:24.877Z,78.13
2023-03-30T03:41:55.725Z,78.23
2023-03-30T03:44:22.354Z,78.52
2023-03-30T03:46:49.348Z,78.02
2023-03-30T03:49:16.197Z,79.23
2023-03-30T03:51:42.786Z,79.31
2023-03-30T03:54:09.370Z,79.71
2023-03-30T03:56:36.432Z,79.08
2023-03-30T03:59:04.647Z,79.13
2023-03-30T04:01:31.673Z,78.44
2023-03-30T04:03:58.203Z,77.81
2023-03-30T04:06:27.022Z,78.32
2023-03-30T04:08:53.786Z,77.96
2023-03-30T04:11:27.367Z,77.85
2023-03-30T04:14:14.177Z,77.77
2023-03-30T04:17:15.917Z,78.21
2023-03-30T04:20:08.952Z,78.65
2023-03-30T04:23:02.090Z,78.27
2023-03-30T04:25:51.892Z,77.90
2023-03-30T04:28:21.750Z,78.21
2023-03-30T04:31:12.880Z,77.33
2023-03-30T04:33:51.794Z,76.83
2023-03-30T04:36:43.229Z,77.61
2023-03-30T04:39:43.925Z,75.91
2023-03-30T04:42:34.162Z,76.12
2023-03-30T04:45:27.251Z,75.55
2023-03-30T04:48:28.978Z,75.09
2023-03-30T04:51:17.979Z,74.47
2023-03-30T04:54:16.926Z,76.28
2023-03-30T04:57:03.845Z,75.68
2023-03-30T04:59:41.735Z,75.58
2023-03-30T05:02:43.931Z,75.45
2023-03-30T05:05:43.077Z,75.81
2023-03-30T05:08:28.958Z,75.23
2023-03-30T05:11:13.917Z,75.91
2023-03-30T05:14:09.728Z,75.26
2023-03-30T05:16:55.931Z,75.12
2023-03-30T05:19:48.872Z,75.95
2023-03-30T05:22:44.236Z,75.56
2023-03-30T05:25:45.248Z,75.05
2023-03-30T05:28:32.487Z,75.69
2023-03-30T05:31:18.128Z,75.82
2023-03-30T05:34:03.384Z,75.77
2023-03-30T05:36:48.327Z,75.02
2023-03-30T05:39:27.160Z,75.57
2023-03-30T05:42:11.386Z,75.67
2023-03-30T05:45:01.325Z,75.22
2023-03-30T05:47:46.671Z,75.81
2023-03-30T05:50:25.455Z,75.54
2023-03-30T05:53:04.310Z,75.68
2023-03-30T05:55:39.684Z,75.56
2023-03-30T05:58:25.454Z,75.15
2023-03-30T06:01:09.317Z,73.97
2023-03-30T06:03:39.862Z,74.23
2023-03-30T06:06:09.275Z,74.20
2023-03-30T06:08:36.977Z,74.59
2023-03-30T06:11:06.842Z,74.62
2023-03-30T06:13:52.798Z,74.38
2023-03-30T06:16:19.404Z,74.67
2023-03-30T06:18:46.926Z,74.50
2023-03-30T06:21:15.511Z,75.30
2023-03-30T06:23:54.762Z,75.28
2023-03-30T06:26:24.401Z,74.45
2023-03-30T06:28:51.934Z,74.71
2023-03-30T06:31:18.753Z,75.08
2023-03-30T06:33:51.178Z,75.83
2023-03-30T06:36:18.577Z,74.95
2023-03-30T06:38:46.608Z,75.58
2023-03-30T06:41:16.502Z,75.57
2023-03-30T06:43:46.732Z,76.57
2023-03-30T06:46:15.858Z,75.40
2023-03-30T06:48:46.766Z,75.31
2023-03-30T06:51:32.080Z,75.16
2023-03-30T06:54:01.371Z,75.45
2023-03-30T06:56:28.281Z,75.06
2023-03-30T06:59:15.680Z,75.15
2023-03-30T07:02:01.492Z,75.21
2023-03-30T07:04:46.868Z,74.99
2023-03-30T07:07:23.676Z,75.57
2023-03-30T07:09:50.304Z,75.43
2023-03-30T07:12:16.923Z,74.90
2023-03-30T07:14:44.862Z,75.48
2023-03-30T07:17:11.556Z,75.73
2023-03-30T07:19:38.307Z,75.78
2023-03-30T07:22:05.088Z,75.79
2023-03-30T07:24:33.600Z,75.98
2023-03-30T07:27:00.202Z,77.04
2023-03-30T07:29:28.223Z,76.72
2023-03-30T07:31:58.977Z,75.74
2023-03-30T07:34:26.552Z,76.15
2023-03-30T07:36:56.634Z,75.37
2023-03-30T07:39:27.987Z,75.22
2023-03-30T07:41:55.595Z,75.54
2023-03-30T07:44:23.120Z,74.95
2023-03-30T07:46:50.323Z,75.84
2023-03-30T07:49:22.785Z,76.55
2023-03-30T07:51:49.649Z,75.46
2023-03-30T07:54:39.003Z,74.38
2023-03-30T07:57:12.247Z,73.30
2023-03-30T07:59:41.346Z,73.69
2023-03-30T08:02:18.558Z,73.79
2023-03-30T08:04:52.968Z,72.32
2023-03-30T08:07:47.677Z,72.25
2023-03-30T08:10:21.376Z,73.06
2023-03-30T08:12:48.073Z,72.95
2023-03-30T08:15:14.713Z,72.54
2023-03-30T08:17:41.451Z,72.82
2023-03-30T08:20:11.535Z,73.45
2023-03-30T08:22:38.603Z,73.34
2023-03-30T08:25:05.731Z,73.83
2023-03-30T08:27:32.980Z,73.27
2023-03-30T08:30:00.254Z,73.79
2023-03-30T08:32:26.834Z,77.38
2023-03-30T08:34:55.033Z,81.26
2023-03-30T08:37:21.769Z,81.17
2023-03-30T08:39:48.772Z,82.04
2023-03-30T08:42:36.675Z,83.99
2023-03-30T08:45:07.368Z,85.16
2023-03-30T08:47:49.089Z,84.95
2023-03-30T08:50:30.646Z,83.84
2023-03-30T08:52:58.211Z,82.45
2023-03-30T08:55:47.070Z,81.99
2023-03-30T08:58:35.772Z,83.23
2023-03-30T09:01:03.786Z,85.40
2023-03-30T09:03:46.339Z,88.86
2023-03-30T09:06:45.867Z,91.15
2023-03-30T09:09:26.589Z,96.10
2023-03-30T09:12:08.431Z,100.00
2023-03-30T09:15:00.985Z,100.00
2023-03-30T09:17:59.826Z,100.00
2023-03-30T09:20:47.008Z,100.00
2023-03-30T09:23:28.516Z,100.00
2023-03-30T09:26:31.616Z,100.00
2023-03-30T09:29:15.349Z,100.00
2023-03-30T09:32:19.996Z,100.00
2023-03-30T09:35:26.863Z,100.00
2023-03-30T09:37:58.065Z,100.00
2023-03-30T09:40:36.451Z,100.00
2023-03-30T09:43:33.285Z,100.00
2023-03-30T09:46:05.933Z,100.00
2023-03-30T09:48:47.331Z,100.00
2023-03-30T09:51:25.845Z,100.00
2023-03-30T09:54:04.288Z,100.00
2023-03-30T09:56:47.295Z,100.00
2023-03-30T09:59:33.839Z,100.00
2023-03-30T10:02:13.240Z,100.00
2023-03-30T10:05:02.929Z,100.00
2023-03-30T10:07:43.724Z,100.00
2023-03-30T10:10:28.697Z,99.79
2023-03-30T10:13:05.776Z,98.62
2023-03-30T10:15:42.157Z,94.56
2023-03-30T10:18:52.570Z,92.53
2023-03-30T10:21:27.165Z,91.30
2023-03-30T10:24:09.809Z,89.10
2023-03-30T10:26:38.215Z,87.80
2023-03-30T10:29:07.928Z,87.99
2023-03-30T10:31:37.007Z,85.02
2023-03-30T10:34:19.134Z,84.28
2023-03-30T10:36:51.865Z,82.65
2023-03-30T10:39:30.629Z,81.24
2023-03-30T10:42:01.715Z,79.97
2023-03-30T10:44:47.408Z,78.65
2023-03-30T10:47:29.060Z,76.97
2023-03-30T10:50:02.013Z,77.04
2023-03-30T10:52:56.294Z,77.45
2023-03-30T10:55:42.012Z,80.06
2023-03-30T10:58:39.559Z,80.59
2023-03-30T11:01:27.916Z,81.26
2023-03-30T11:04:20.415Z,85.22
2023-03-30T11:06:54.524Z,85.27
2023-03-30T11:09:29.587Z,85.25
2023-03-30T11:12:21.211Z,81.97
2023-03-30T11:15:26.496Z,83.88
2023-03-30T11:18:04.535Z,86.33
2023-03-30T11:20:36.227Z,85.39
2023-03-30T11:23:30.760Z,83.80
2023-03-30T11:26:27.690Z,81.46
2023-03-30T11:29:30.826Z,80.85
2023-03-30T11:32:22.134Z,81.07
2023-03-30T11:35:19.049Z,80.29
2023-03-30T11:37:53.079Z,80.46
2023-03-30T11:40:27.345Z,80.87
2023-03-30T11:42:54.832Z,80.31
2023-03-30T11:45:53.082Z,79.95
2023-03-30T11:48:33.422Z,79.14
2023-03-30T11:51:28.372Z,80.24
2023-03-30T11:54:24.765Z,79.00
2023-03-30T11:57:03.190Z,78.80
2023-03-30T12:00:08.589Z,76.26
2023-03-30T12:03:01.766Z,76.28
2023-03-30T12:05:34.876Z,75.73
2023-03-30T12:08:13.651Z,74.05
2023-03-30T12:10:42.515Z,69.94
2023-03-30T12:13:18.282Z,67.03
2023-03-30T12:16:03.006Z,68.42
2023-03-30T12:18:42.183Z,66.13
2023-03-30T12:21:27.145Z,63.69
2023-03-30T12:24:10.060Z,61.75
2023-03-30T12:26:41.653Z,62.10
2023-03-30T12:29:52.566Z,62.51
2023-03-30T12:32:04.867Z,63.93
2023-03-30T12:34:36.801Z,63.73
2023-03-30T12:37:14.922Z,63.87
2023-03-30T12:39:50.517Z,63.53
2023-03-30T12:42:39.521Z,64.17
2023-03-30T12:45:15.482Z,66.31
2023-03-30T12:48:04.846Z,78.25
2023-03-30T12:50:46.094Z,85.09
2023-03-30T12:53:27.933Z,89.12
2023-03-30T12:56:12.042Z,92.59
2023-03-30T12:59:09.594Z,87.06
2023-03-30T13:02:14.058Z,87.68
2023-03-30T13:04:44.145Z,83.69
2023-03-30T13:07:39.143Z,80.49
2023-03-30T13:10:30.966Z,81.05
2023-03-30T13:13:01.307Z,77.13
2023-03-30T13:15:50.234Z,73.52
2023-03-30T13:18:16.769Z,75.38
2023-03-30T13:20:46.327Z,71.21
2023-03-30T13:23:12.852Z,69.50
2023-03-30T13:25:39.541Z,69.86
2023-03-30T13:28:34.688Z,66.78
2023-03-30T13:31:11.735Z,66.52
2023-03-30T13:33:45.845Z,65.71
2023-03-30T13:36:17.847Z,69.67
2023-03-30T13:38:56.140Z,65.90
2023-03-30T13:41:39.780Z,65.59
2023-03-30T13:44:43.145Z,64.99
2023-03-30T13:47:18.776Z,67.17
2023-03-30T13:50:00.723Z,72.70
2023-03-30T13:52:43.556Z,72.15
2023-03-30T13:55:19.225Z,73.77
2023-03-30T13:57:45.789Z,71.92
2023-03-30T14:00:54.041Z,72.02
2023-03-30T14:03:29.366Z,72.83
2023-03-30T14:06:15.256Z,73.56
2023-03-30T14:08:44.989Z,73.33
2023-03-30T14:11:24.518Z,72.53
2023-03-30T14:13:54.938Z,70.21
2023-03-30T14:16:25.564Z,70.43
2023-03-30T14:18:53.968Z,70.70
2023-03-30T14:21:24.049Z,71.40
2023-03-30T14:23:52.950Z,72.27
2023-03-30T14:26:24.915Z,74.44
2023-03-30T14:29:24.630Z,74.49
2023-03-30T14:32:08.159Z,75.50
2023-03-30T14:34:36.032Z,76.51
2023-03-30T14:37:08.490Z,80.58
2023-03-30T14:39:55.715Z,91.38
2023-03-30T14:42:26.511Z,100.00
2023-03-30T14:44:55.518Z,100.00
2023-03-30T14:47:25.906Z,100.00
2023-03-30T14:49:56.858Z,100.00
2023-03-30T14:52:33.778Z,100.00
2023-03-30T14:55:06.032Z,100.00
2023-03-30T14:57:40.277Z,100.00
2023-03-30T15:00:17.176Z,100.00
2023-03-30T15:02:45.312Z,100.00
2023-03-30T15:05:17.506Z,100.00
2023-03-30T15:07:48.606Z,100.00
2023-03-30T15:11:01.818Z,100.00
2023-03-30T15:13:42.577Z,100.00
2023-03-30T15:16:15.920Z,100.00
2023-03-30T15:18:42.602Z,96.89
2023-03-30T15:21:12.543Z,95.16
2023-03-30T15:23:42.066Z,95.02
2023-03-30T15:26:11.216Z,94.57
2023-03-30T15:28:47.240Z,92.48
2023-03-30T15:31:16.138Z,93.13
2023-03-30T15:33:54.117Z,93.49
2023-03-30T15:36:25.309Z,93.49
2023-03-30T15:38:53.201Z,92.22
2023-03-30T15:41:43.475Z,92.11
2023-03-30T15:44:12.067Z,96.04
2023-03-30T15:46:40.437Z,91.83
2023-03-30T15:49:08.204Z,92.21
2023-03-30T15:51:47.641Z,92.64
2023-03-30T15:54:15.989Z,93.16
2023-03-30T15:57:03.964Z,91.45
2023-03-30T15:59:36.799Z,90.51
2023-03-30T16:02:15.300Z,89.14
2023-03-30T16:04:42.181Z,88.40
2023-03-30T16:07:24.670Z,87.41
2023-03-30T16:09:52.052Z,87.10
2023-03-30T16:12:26.931Z,87.71
2023-03-30T16:14:54.055Z,87.70
2023-03-30T16:17:20.779Z,86.00
2023-03-30T16:19:47.347Z,86.10
2023-03-30T16:22:15.633Z,85.71
2023-03-30T16:24:43.045Z,86.27
2023-03-30T16:27:11.343Z,85.63
2023-03-30T16:29:38.029Z,85.91
2023-03-30T16:32:04.970Z,85.98
2023-03-30T16:34:31.769Z,86.08
2023-03-30T16:36:58.393Z,87.17
2023-03-30T16:39:28.110Z,88.64
2023-03-30T16:41:56.030Z,87.54
2023-03-30T16:44:24.715Z,86.45
2023-03-30T16:46:52.081Z,89.97
2023-03-30T16:49:21.916Z,90.13
2023-03-30T16:51:49.130Z,89.68
2023-03-30T16:54:27.739Z,93.24
2023-03-30T16:56:56.610Z,100.00
2023-03-30T16:59:25.846Z,100.00
2023-03-30T17:01:52.699Z,100.00
2023-03-30T17:04:19.631Z,100.00
2023-03-30T17:06:46.284Z,100.00
2023-03-30T17:09:15.550Z,100.00
2023-03-30T17:11:42.492Z,100.00
2023-03-30T17:14:09.202Z,100.00
2023-03-30T17:16:36.520Z,100.00
2023-03-30T17:19:03.387Z,100.00
2023-03-30T17:21:29.985Z,100.00
2023-03-30T17:23:57.861Z,100.00
2023-03-30T17:26:24.454Z,100.00
2023-03-30T17:28:52.172Z,100.00
2023-03-30T17:31:21.028Z,100.00
2023-03-30T17:33:48.821Z,100.00
2023-03-30T17:36:23.442Z,100.00
2023-03-30T17:38:50.888Z,100.00
2023-03-30T17:41:19.427Z,100.00
2023-03-30T17:43:47.962Z,100.00
2023-03-30T17:46:17.366Z,100.00
2023-03-30T17:48:44.640Z,100.00
2023-03-30T17:51:11.436Z,100.00
2023-03-30T17:53:38.129Z,100.00
2023-03-30T17:56:05.115Z,100.00
2023-03-30T17:58:34.408Z,100.00
2023-03-30T18:01:03.795Z,100.00
2023-03-30T18:03:31.284Z,100.00
2023-03-30T18:06:00.170Z,100.00
2023-03-30T18:08:28.214Z,100.00
2023-03-30T18:11:00.097Z,100.00
2023-03-30T18:13:28.652Z,100.00
2023-03-30T18:15:57.286Z,100.00
2023-03-30T18:18:27.245Z,100.00
2023-03-30T18:20:56.485Z,100.00
2023-03-30T18:23:23.593Z,100.00
2023-03-30T18:25:50.238Z,100.00
2023-03-30T18:28:25.737Z,100.00
2023-03-30T18:30:55.232Z,100.00
2023-03-30T18:33:22.028Z,100.00
2023-03-30T18:35:50.580Z,100.00
2023-03-30T18:38:20.455Z,100.00
2023-03-30T18:40:50.001Z,100.00
2023-03-30T18:43:16.832Z,100.00
2023-03-30T18:45:46.452Z,100.00
2023-03-30T18:48:15.655Z,100.00
2023-03-30T18:50:44.684Z,100.00
2023-03-30T18:53:13.281Z,100.00
2023-03-30T18:55:42.898Z,100.00
2023-03-30T18:58:18.271Z,100.00
2023-03-30T19:00:44.999Z,100.00
2023-03-30T19:03:13.155Z,100.00
2023-03-30T19:05:41.502Z,100.00
2023-03-30T19:08:22.688Z,100.00
2023-03-30T19:10:51.809Z,100.00
2023-03-30T19:13:20.502Z,100.00
2023-03-30T19:15:48.205Z,100.00
2023-03-30T19:18:15.738Z,100.00
2023-03-30T19:20:42.454Z,100.00
2023-03-30T19:23:14.664Z,100.00
2023-03-30T19:25:42.808Z,100.00
2023-03-30T19:28:10.818Z,100.00
2023-03-30T19:30:39.598Z,100.00
2023-03-30T19:33:11.059Z,100.00
2023-03-30T19:35:40.845Z,100.00
2023-03-30T19:38:07.581Z,100.00
2023-03-30T19:40:34.154Z,100.00
2023-03-30T19:43:00.758Z,100.00
2023-03-30T19:45:27.415Z,100.00
2023-03-30T19:47:54.081Z,100.00
2023-03-30T19:52:50.956Z,100.00
2023-03-30T19:55:19.407Z,100.00
2023-03-30T19:57:46.523Z,100.00
2023-03-30T20:00:15.870Z,100.00
2023-03-30T20:02:44.057Z,100.00
2023-03-30T20:05:12.862Z,100.00
2023-03-30T20:07:40.535Z,100.00
2023-03-30T20:10:14.247Z,100.00
2023-03-30T20:12:41.010Z,100.00
2023-03-30T20:15:09.900Z,100.00
2023-03-30T20:17:37.791Z,100.00
2023-03-30T20:20:08.578Z,100.00
2023-03-30T20:22:36.702Z,100.00
2023-03-30T20:25:07.794Z,100.00
2023-03-30T20:27:35.723Z,100.00
2023-03-30T20:30:03.926Z,100.00
2023-03-30T20:32:30.619Z,100.00
2023-03-30T20:34:57.865Z,100.00
2023-03-30T20:37:24.489Z,100.00
2023-03-30T20:39:51.126Z,100.00
2023-03-30T20:42:25.786Z,100.00
2023-03-30T20:44:53.368Z,100.00
2023-03-30T20:47:23.157Z,100.00
2023-03-30T20:49:49.825Z,100.00
2023-03-30T20:52:16.725Z,100.00
2023-03-30T20:54:44.698Z,100.00
2023-03-30T20:57:11.801Z,100.00
2023-03-30T20:59:39.408Z,100.00
2023-03-30T21:02:06.425Z,100.00
2023-03-30T21:04:33.876Z,100.00
2023-03-30T21:07:00.812Z,100.00
2023-03-30T21:09:27.860Z,100.00
2023-03-30T21:11:54.679Z,100.00
2023-03-30T21:14:21.681Z,100.00
2023-03-30T21:16:48.328Z,100.00
2023-03-30T21:19:14.903Z,100.00
2023-03-30T21:21:41.474Z,100.00
2023-03-30T21:24:09.982Z,100.00
2023-03-30T21:26:37.615Z,100.00
2023-03-30T21:29:05.013Z,100.00
2023-03-30T21:31:31.668Z,100.00
2023-03-30T21:33:58.543Z,100.00
2023-03-30T21:36:25.207Z,100.00
2023-03-30T21:38:51.911Z,100.00
2023-03-30T21:41:20.999Z,100.00
2023-03-30T21:43:48.348Z,100.00
2023-03-30T21:46:18.952Z,100.00
2023-03-30T21:48:46.221Z,100.00
2023-03-30T21:51:16.437Z,100.00
2023-03-30T21:53:44.858Z,100.00
2023-03-30T21:56:12.326Z,100.00
2023-03-30T21:58:39.652Z,100.00
2023-03-30T22:01:12.265Z,100.00
2023-03-30T22:03:41.949Z,100.00
2023-03-30T22:06:10.775Z,100.00
2023-03-30T22:08:37.428Z,100.00
2023-03-30T22:11:06.752Z,100.00
2023-03-30T22:13:33.972Z,100.00
2023-03-30T22:16:00.798Z,100.00
2023-03-30T22:18:27.889Z,100.00
2023-03-30T22:20:57.761Z,100.00
2023-03-30T22:23:24.342Z,100.00
2023-03-30T22:25:51.297Z,100.00
2023-03-30T22:28:17.882Z,100.00
2023-03-30T22:30:45.209Z,100.00
2023-03-30T22:33:12.417Z,100.00
2023-03-30T22:35:40.949Z,100.00
2023-03-30T22:38:09.089Z,100.00
2023-03-30T22:40:36.032Z,100.00
2023-03-30T22:43:03.514Z,100.00
2023-03-30T22:45:30.631Z,100.00
2023-03-30T22:47:58.825Z,100.00
2023-03-30T22:50:27.522Z,100.00
2023-03-30T22:52:55.834Z,100.00
2023-03-30T22:55:23.484Z,100.00
2023-03-30T22:57:53.922Z,100.00
2023-03-30T23:00:21.177Z,100.00
2023-03-30T23:02:49.342Z,100.00
2023-03-30T23:05:16.965Z,100.00
2023-03-30T23:07:48.118Z,100.00
2023-03-30T23:10:21.029Z,99.52
2023-03-30T23:12:47.648Z,98.91
2023-03-30T23:15:14.737Z,99.71
2023-03-30T23:17:41.603Z,99.73
2023-03-30T23:20:12.106Z,99.97
2023-03-30T23:22:39.273Z,99.64
2023-03-30T23:25:07.124Z,100.00
2023-03-30T23:27:34.846Z,99.69
2023-03-30T23:30:01.408Z,99.71
2023-03-30T23:32:28.002Z,99.39
2023-03-30T23:34:54.596Z,99.99
2023-03-30T23:37:24.896Z,99.51
2023-03-30T23:39:51.566Z,99.65
2023-03-30T23:42:18.167Z,98.90
2023-03-30T23:44:45.294Z,100.00
2023-03-30T23:47:11.887Z,98.97
2023-03-30T23:49:38.386Z,99.09
2023-03-30T23:52:04.924Z,100.00
2023-03-30T23:54:31.593Z,99.88
2023-03-30T23:56:58.293Z,99.76
2023-03-30T23:59:25.290Z,99.75
